Terminal Aerodrome Forecast
Issued by NWS Amarillo, TX

Home | Current Version | Previous Version | Text Only | Print | Product List | Glossary On
Versions: 1 2 3 4 5 6 7 8 9 10 11 12 13 14 15 16 17
000
FTUS44 KAMA 230100 AAA
TAFAMA
TAF AMD
KAMA 230101Z 2301/2324 21012KT P6SM SCT005
      TEMPO 2302/2304 2SM BR BKN005
     FM230900 26018KT P6SM SCT250
     FM231400 34023G31KT P6SM BKN050=

USA.gov is the U.S. government's official web portal to all federal, state and local government web resources and services.